createdAt,value
2022-12-01T00:01:10.959Z,72.70
2022-12-01T00:03:37.919Z,72.60
2022-12-01T00:06:11.487Z,73.50
2022-12-01T00:08:38.472Z,74.20
2022-12-01T00:11:12.103Z,74.90
2022-12-01T00:13:39.023Z,74.70
2022-12-01T00:16:13.587Z,74.50
2022-12-01T00:18:40.563Z,75.60
2022-12-01T00:21:13.777Z,75.60
2022-12-01T00:23:43.655Z,76.40
2022-12-01T00:26:10.679Z,77.40
2022-12-01T00:28:37.473Z,78.20
2022-12-01T00:31:11.104Z,78.50
2022-12-01T00:33:38.786Z,77.70
2022-12-01T00:36:06.166Z,77.70
2022-12-01T00:38:33.481Z,77.90
2022-12-01T00:41:00.224Z,78.10
2022-12-01T00:43:27.079Z,77.80
2022-12-01T00:45:53.917Z,77.80
2022-12-01T00:48:20.755Z,77.30
2022-12-01T00:50:47.775Z,75.60
2022-12-01T00:53:14.564Z,75.10
2022-12-01T00:55:41.347Z,75.30
2022-12-01T00:58:08.295Z,75.70
2022-12-01T01:00:38.651Z,75.40
2022-12-01T01:03:08.444Z,77.10
2022-12-01T01:05:40.016Z,77.70
2022-12-01T01:08:11.910Z,77.10
2022-12-01T01:10:39.801Z,76.80
2022-12-01T01:13:06.773Z,75.40
2022-12-01T01:15:33.821Z,74.40
2022-12-01T01:18:01.258Z,75.00
2022-12-01T01:20:28.458Z,74.50
2022-12-01T01:22:55.215Z,74.60
2022-12-01T01:25:22.805Z,74.70
2022-12-01T01:27:49.885Z,73.80
2022-12-01T01:30:17.221Z,74.30
2022-12-01T01:32:43.969Z,74.20
2022-12-01T01:35:10.810Z,74.90
2022-12-01T01:37:37.552Z,75.00
2022-12-01T01:40:04.882Z,74.60
2022-12-01T01:42:31.633Z,74.90
2022-12-01T01:44:59.215Z,74.50
2022-12-01T01:47:40.774Z,75.30
2022-12-01T01:50:10.955Z,75.40
2022-12-01T01:52:49.980Z,75.30
2022-12-01T01:55:17.115Z,74.90
2022-12-01T01:57:44.950Z,74.50
2022-12-01T02:00:15.984Z,74.60
2022-12-01T02:02:44.768Z,75.00
2022-12-01T02:05:16.657Z,74.50
2022-12-01T02:07:43.564Z,74.30
2022-12-01T02:10:13.127Z,74.40
2022-12-01T02:13:06.155Z,74.30
2022-12-01T02:16:24.110Z,73.80
2022-12-01T02:19:16.955Z,74.50
2022-12-01T02:22:01.820Z,76.50
2022-12-01T02:24:50.631Z,77.10
2022-12-01T02:27:29.768Z,77.20
2022-12-01T02:30:02.143Z,77.10
2022-12-01T02:32:47.114Z,77.70
2022-12-01T02:35:16.780Z,78.30
2022-12-01T02:38:03.320Z,80.00
2022-12-01T02:40:44.743Z,80.20
2022-12-01T02:43:33.207Z,79.70
2022-12-01T02:46:10.904Z,79.90
2022-12-01T02:48:40.994Z,80.30
2022-12-01T02:51:14.710Z,79.50
2022-12-01T02:53:41.705Z,79.80
2022-12-01T02:56:13.492Z,79.20
2022-12-01T02:58:40.377Z,79.80
2022-12-01T03:01:12.621Z,80.00
2022-12-01T03:03:58.302Z,79.60
2022-12-01T03:06:31.039Z,79.40
2022-12-01T03:09:06.267Z,79.30
2022-12-01T03:11:42.459Z,79.80
2022-12-01T03:14:14.529Z,80.00
2022-12-01T03:16:51.951Z,79.20
2022-12-01T03:19:32.067Z,78.50
2022-12-01T03:22:04.410Z,78.00
2022-12-01T03:24:33.095Z,78.30
2022-12-01T03:27:01.643Z,78.20
2022-12-01T03:29:33.718Z,79.30
2022-12-01T03:32:10.671Z,79.50
2022-12-01T03:34:56.673Z,79.60
2022-12-01T03:37:44.329Z,79.40
2022-12-01T03:40:18.328Z,79.90
2022-12-01T03:42:52.819Z,80.30
2022-12-01T03:45:33.206Z,80.90
2022-12-01T03:48:00.350Z,81.40
2022-12-01T03:50:36.712Z,81.80
2022-12-01T03:53:19.364Z,82.60
2022-12-01T03:55:53.351Z,83.20
2022-12-01T03:58:34.310Z,83.90
2022-12-01T04:01:05.070Z,84.60
2022-12-01T04:03:31.801Z,85.30
2022-12-01T04:05:58.985Z,85.90
2022-12-01T04:08:25.999Z,86.10
2022-12-01T04:10:52.812Z,86.80
2022-12-01T04:13:23.279Z,87.60
2022-12-01T04:15:51.321Z,88.10
2022-12-01T04:18:18.926Z,88.30
2022-12-01T04:20:50.240Z,87.60
2022-12-01T04:23:35.665Z,87.60
2022-12-01T04:26:04.671Z,88.00
2022-12-01T04:28:31.565Z,88.30
2022-12-01T04:30:58.360Z,88.50
2022-12-01T04:33:25.215Z,87.80
2022-12-01T04:36:01.338Z,87.80
2022-12-01T04:38:30.942Z,87.70
2022-12-01T04:40:58.029Z,88.10
2022-12-01T04:43:24.866Z,88.50
2022-12-01T04:45:51.594Z,88.40
2022-12-01T04:48:18.309Z,87.80
2022-12-01T04:50:45.015Z,87.60
2022-12-01T04:53:11.764Z,87.40
2022-12-01T04:55:39.325Z,87.10
2022-12-01T04:58:06.500Z,86.80
2022-12-01T05:00:33.945Z,86.60
2022-12-01T05:03:01.200Z,86.90
2022-12-01T05:05:28.119Z,86.90
2022-12-01T05:07:55.184Z,86.90
2022-12-01T05:10:22.449Z,86.00
2022-12-01T05:12:49.819Z,86.10
2022-12-01T05:15:16.782Z,86.90
2022-12-01T05:17:43.885Z,87.00
2022-12-01T05:20:37.941Z,87.20
2022-12-01T05:23:06.110Z,87.20
2022-12-01T05:25:33.773Z,86.60
2022-12-01T05:28:00.660Z,86.50
2022-12-01T05:30:28.954Z,87.00
2022-12-01T05:32:55.948Z,88.00
2022-12-01T05:35:22.751Z,88.30
2022-12-01T05:37:49.635Z,88.80
2022-12-01T05:40:16.522Z,88.70
2022-12-01T05:42:43.346Z,88.70
2022-12-01T05:45:10.505Z,88.20
2022-12-01T05:47:37.237Z,87.80
2022-12-01T05:50:05.945Z,87.40
2022-12-01T05:52:36.228Z,87.20
2022-12-01T05:55:04.462Z,86.40
2022-12-01T05:57:32.160Z,85.70
2022-12-01T05:59:59.262Z,85.00
2022-12-01T06:02:26.945Z,83.70
2022-12-01T06:04:53.973Z,83.50
2022-12-01T06:07:23.439Z,82.90
2022-12-01T06:09:50.533Z,82.30
2022-12-01T06:12:17.438Z,81.60
2022-12-01T06:14:44.286Z,81.10
2022-12-01T06:17:11.728Z,82.00
2022-12-01T06:19:39.287Z,82.10
2022-12-01T06:22:06.051Z,82.20
2022-12-01T06:24:32.774Z,81.70
2022-12-01T06:26:59.572Z,82.20
2022-12-01T06:29:26.388Z,82.20
2022-12-01T06:31:53.227Z,82.30
2022-12-01T06:34:19.990Z,81.80
2022-12-01T06:36:46.748Z,81.70
2022-12-01T06:39:15.669Z,82.90
2022-12-01T06:41:43.282Z,83.10
2022-12-01T06:44:11.066Z,82.50
2022-12-01T06:46:38.068Z,81.40
2022-12-01T06:49:05.101Z,80.10
2022-12-01T06:51:34.230Z,80.20
2022-12-01T06:54:05.448Z,79.80
2022-12-01T06:56:32.547Z,79.40
2022-12-01T06:58:59.867Z,79.50
2022-12-01T07:01:27.074Z,79.20
2022-12-01T07:03:54.844Z,79.40
2022-12-01T07:06:21.672Z,80.00
2022-12-01T07:08:48.471Z,79.40
2022-12-01T07:11:16.451Z,78.80
2022-12-01T07:13:49.486Z,79.20
2022-12-01T07:16:16.325Z,79.50
2022-12-01T07:18:45.062Z,80.30
2022-12-01T07:21:13.623Z,81.00
2022-12-01T07:23:40.822Z,82.00
2022-12-01T07:26:13.490Z,82.50
2022-12-01T07:28:40.244Z,82.50
2022-12-01T07:31:08.283Z,82.10
2022-12-01T07:33:36.218Z,82.80
2022-12-01T07:36:03.992Z,83.30
2022-12-01T07:38:32.791Z,82.80
2022-12-01T07:41:11.436Z,81.90
2022-12-01T07:43:39.336Z,81.00
2022-12-01T07:46:17.179Z,81.70
2022-12-01T07:48:47.623Z,82.10
2022-12-01T07:51:18.655Z,82.40
2022-12-01T07:53:46.937Z,82.80
2022-12-01T07:56:14.294Z,82.90
2022-12-01T07:58:41.732Z,83.00
2022-12-01T08:01:17.367Z,82.80
2022-12-01T08:03:44.477Z,82.20
2022-12-01T08:06:12.037Z,80.80
2022-12-01T08:08:40.743Z,81.00
2022-12-01T08:11:11.559Z,81.00
2022-12-01T08:13:39.507Z,81.00
2022-12-01T08:16:08.059Z,80.50
2022-12-01T08:18:35.964Z,79.80
2022-12-01T08:21:03.922Z,79.20
2022-12-01T08:23:30.757Z,78.70
2022-12-01T08:26:04.570Z,78.40
2022-12-01T08:28:31.362Z,78.60
2022-12-01T08:30:58.440Z,78.60
2022-12-01T08:33:25.256Z,78.70
2022-12-01T08:35:52.102Z,79.30
2022-12-01T08:38:18.839Z,79.50
2022-12-01T08:40:45.555Z,79.80
2022-12-01T08:43:28.348Z,80.40
2022-12-01T08:46:00.427Z,80.70
2022-12-01T08:48:30.041Z,80.30
2022-12-01T08:51:07.053Z,79.70
2022-12-01T08:53:35.361Z,79.80
2022-12-01T08:56:05.170Z,79.40
2022-12-01T08:58:32.061Z,79.50
2022-12-01T09:01:10.451Z,78.60
2022-12-01T09:03:38.597Z,78.70
2022-12-01T09:06:09.818Z,79.10
2022-12-01T09:08:37.322Z,78.10
2022-12-01T09:11:11.392Z,77.40
2022-12-01T09:13:39.666Z,76.20
2022-12-01T09:16:10.592Z,75.60
2022-12-01T09:18:37.654Z,74.70
2022-12-01T09:21:19.833Z,75.40
2022-12-01T09:23:47.272Z,76.00
2022-12-01T09:26:18.470Z,77.30
2022-12-01T09:28:50.463Z,75.70
2022-12-01T09:31:18.474Z,75.40
2022-12-01T09:33:45.521Z,74.40
2022-12-01T09:36:13.145Z,72.70
2022-12-01T09:38:40.361Z,72.40
2022-12-01T09:41:31.757Z,72.20
2022-12-01T09:44:14.141Z,72.10
2022-12-01T09:47:06.463Z,72.50
2022-12-01T09:49:43.712Z,71.80
2022-12-01T09:52:13.297Z,71.70
2022-12-01T09:54:41.050Z,71.40
2022-12-01T09:57:32.097Z,72.10
2022-12-01T10:00:02.361Z,71.70
2022-12-01T10:02:47.802Z,72.00
2022-12-01T10:05:25.129Z,70.40
2022-12-01T10:07:57.511Z,71.00
2022-12-01T10:10:33.042Z,71.70
2022-12-01T10:13:00.545Z,71.90
2022-12-01T10:15:54.583Z,73.10
2022-12-01T10:18:39.413Z,73.10
2022-12-01T10:21:20.770Z,73.70
2022-12-01T10:24:05.822Z,73.70
2022-12-01T10:26:52.873Z,73.00
2022-12-01T10:29:25.621Z,72.50
2022-12-01T10:31:57.909Z,71.90
2022-12-01T10:34:30.189Z,70.60
2022-12-01T10:36:57.686Z,70.30
2022-12-01T10:39:41.062Z,70.20
2022-12-01T10:42:17.215Z,69.60
2022-12-01T10:44:45.334Z,69.00
2022-12-01T10:47:25.536Z,68.10
2022-12-01T10:49:52.973Z,69.30
2022-12-01T10:52:55.612Z,68.10
2022-12-01T10:55:30.759Z,67.90
2022-12-01T10:58:02.427Z,67.90
2022-12-01T11:00:59.745Z,67.80
2022-12-01T11:03:28.644Z,66.90
2022-12-01T11:05:58.807Z,67.70
2022-12-01T11:08:38.987Z,68.20
2022-12-01T11:11:06.243Z,70.00
2022-12-01T11:13:36.696Z,69.00
2022-12-01T11:16:06.304Z,70.00
2022-12-01T11:18:38.742Z,70.70
2022-12-01T11:21:27.871Z,71.30
2022-12-01T11:23:56.114Z,71.30
2022-12-01T11:26:27.980Z,71.90
2022-12-01T11:28:56.077Z,72.50
2022-12-01T11:31:36.725Z,72.70
2022-12-01T11:34:04.151Z,71.90
2022-12-01T11:36:46.186Z,72.60
2022-12-01T11:39:43.951Z,73.40
2022-12-01T11:42:13.897Z,73.50
2022-12-01T11:44:52.397Z,73.60
2022-12-01T11:47:23.689Z,72.80
2022-12-01T11:50:03.024Z,71.90
2022-12-01T11:52:36.611Z,72.00
2022-12-01T11:55:20.369Z,73.20
2022-12-01T11:57:50.542Z,73.00
2022-12-01T12:00:21.502Z,73.50
2022-12-01T12:03:07.152Z,73.00
2022-12-01T12:05:49.220Z,72.20
2022-12-01T12:08:39.374Z,72.40
2022-12-01T12:11:19.915Z,72.10
2022-12-01T12:14:08.224Z,72.00
2022-12-01T12:17:03.683Z,72.60
2022-12-01T12:20:08.659Z,73.00
2022-12-01T12:23:05.991Z,72.30
2022-12-01T12:25:54.567Z,72.40
2022-12-01T12:28:32.949Z,72.80
2022-12-01T12:31:17.544Z,72.90
2022-12-01T12:33:56.238Z,73.70
2022-12-01T12:36:52.134Z,73.80
2022-12-01T12:39:22.182Z,73.20
2022-12-01T12:41:53.038Z,72.10
2022-12-01T12:44:51.515Z,72.20
2022-12-01T12:47:47.557Z,71.40
2022-12-01T12:50:41.203Z,71.00
2022-12-01T12:53:38.512Z,71.10
2022-12-01T12:56:10.133Z,70.50
2022-12-01T12:59:01.394Z,70.10
2022-12-01T13:02:03.074Z,70.30
2022-12-01T13:04:50.428Z,70.90
2022-12-01T13:07:34.498Z,71.50
2022-12-01T13:10:19.482Z,71.90
2022-12-01T13:12:56.177Z,71.50
2022-12-01T13:15:23.064Z,71.30
2022-12-01T13:18:03.265Z,70.60
2022-12-01T13:20:32.105Z,69.80
2022-12-01T13:23:00.963Z,69.10
2022-12-01T13:25:38.264Z,68.30
2022-12-01T13:28:14.348Z,67.70
2022-12-01T13:30:41.335Z,67.30
2022-12-01T13:33:14.493Z,67.30
2022-12-01T13:35:42.416Z,67.80
2022-12-01T13:38:21.704Z,67.10
2022-12-01T13:40:49.114Z,67.90
2022-12-01T13:43:23.233Z,69.20
2022-12-01T13:45:51.505Z,69.60
2022-12-01T13:48:39.200Z,69.50
2022-12-01T13:51:07.167Z,70.00
2022-12-01T13:53:36.993Z,71.40
2022-12-01T13:56:06.590Z,71.40
2022-12-01T13:58:33.293Z,70.60
2022-12-01T14:01:26.287Z,70.00
2022-12-01T14:04:02.708Z,69.30
2022-12-01T14:06:59.901Z,69.20
2022-12-01T14:09:37.244Z,68.50
2022-12-01T14:12:19.804Z,68.70
2022-12-01T14:14:55.987Z,69.30
2022-12-01T14:17:36.477Z,69.90
2022-12-01T14:20:14.700Z,69.70
2022-12-01T14:22:44.774Z,70.30
2022-12-01T14:25:20.614Z,70.50
2022-12-01T14:27:50.223Z,70.30
2022-12-01T14:30:42.075Z,70.00
2022-12-01T14:33:39.984Z,69.80
2022-12-01T14:36:21.945Z,69.50
2022-12-01T14:38:59.989Z,69.60
2022-12-01T14:41:38.765Z,69.60
2022-12-01T14:44:36.036Z,68.70
2022-12-01T14:47:12.543Z,68.40
2022-12-01T14:49:52.838Z,69.20
2022-12-01T14:52:28.643Z,68.90
2022-12-01T14:54:58.752Z,68.70
2022-12-01T14:57:32.162Z,68.10
2022-12-01T15:00:23.066Z,67.30
2022-12-01T15:03:02.828Z,66.40
2022-12-01T15:05:31.691Z,66.80
2022-12-01T15:08:40.812Z,67.70
2022-12-01T15:11:10.855Z,68.20
2022-12-01T15:13:53.656Z,67.20
2022-12-01T15:16:23.569Z,68.40
2022-12-01T15:18:50.450Z,68.40
2022-12-01T15:21:20.623Z,68.80
2022-12-01T15:24:00.713Z,69.40
2022-12-01T15:26:45.582Z,69.30
2022-12-01T15:29:24.280Z,68.70
2022-12-01T15:31:57.993Z,68.40
2022-12-01T15:34:31.549Z,68.00
2022-12-01T15:36:59.571Z,68.30
2022-12-01T15:39:34.821Z,68.80
2022-12-01T15:42:03.098Z,69.60
2022-12-01T15:44:35.736Z,69.80
2022-12-01T15:47:37.834Z,69.80
2022-12-01T15:50:06.470Z,69.20
2022-12-01T15:52:42.946Z,69.40
2022-12-01T15:55:25.784Z,70.10
2022-12-01T15:57:52.799Z,71.10
2022-12-01T16:00:21.392Z,71.40
2022-12-01T16:02:57.390Z,71.40
2022-12-01T16:05:30.821Z,71.60
2022-12-01T16:08:14.043Z,72.30
2022-12-01T16:10:41.166Z,72.30
2022-12-01T16:13:38.715Z,73.40
2022-12-01T16:16:23.159Z,73.30
2022-12-01T16:18:59.192Z,73.30
2022-12-01T16:21:27.123Z,73.30
2022-12-01T16:24:05.746Z,73.50
2022-12-01T16:26:33.850Z,74.10
2022-12-01T16:29:00.745Z,73.90
2022-12-01T16:31:27.772Z,74.10
2022-12-01T16:34:09.820Z,75.30
2022-12-01T16:36:49.715Z,77.30
2022-12-01T16:39:16.907Z,80.30
2022-12-01T16:41:44.879Z,79.50
2022-12-01T16:44:28.246Z,78.60
2022-12-01T16:46:55.723Z,77.80
2022-12-01T16:49:22.652Z,77.30
2022-12-01T16:51:55.889Z,77.10
2022-12-01T16:54:23.865Z,77.50
2022-12-01T16:56:51.284Z,77.00
2022-12-01T16:59:17.985Z,77.20
2022-12-01T17:01:44.756Z,78.30
2022-12-01T17:04:11.548Z,79.00
2022-12-01T17:06:38.524Z,79.70
2022-12-01T17:09:05.979Z,80.70
2022-12-01T17:11:33.212Z,80.30
2022-12-01T17:14:00.088Z,80.90
2022-12-01T17:16:27.092Z,81.10
2022-12-01T17:18:53.835Z,82.30
2022-12-01T17:21:20.533Z,82.90
2022-12-01T17:23:47.320Z,83.60
2022-12-01T17:26:16.735Z,84.50
2022-12-01T17:28:43.591Z,85.00
2022-12-01T17:31:11.050Z,85.30
2022-12-01T17:33:43.971Z,85.20
2022-12-01T17:36:12.512Z,84.90
2022-12-01T17:38:41.762Z,85.20
2022-12-01T17:41:15.838Z,85.40
2022-12-01T17:43:42.793Z,85.60
2022-12-01T17:46:11.644Z,85.50
2022-12-01T17:48:40.666Z,85.60
2022-12-01T17:51:08.991Z,84.90
2022-12-01T17:53:36.627Z,85.70
2022-12-01T17:56:10.190Z,86.00
2022-12-01T17:58:37.752Z,86.30
2022-12-01T18:01:05.712Z,87.30
2022-12-01T18:03:32.573Z,88.20
2022-12-01T18:06:01.865Z,88.30
2022-12-01T18:08:30.441Z,88.40
2022-12-01T18:11:12.499Z,88.20
2022-12-01T18:13:40.901Z,88.60
2022-12-01T18:16:17.443Z,88.80
2022-12-01T18:18:44.421Z,88.80
2022-12-01T18:21:14.346Z,88.00
2022-12-01T18:23:43.260Z,87.10
2022-12-01T18:26:15.767Z,87.60
2022-12-01T18:28:43.275Z,87.50
2022-12-01T18:31:12.404Z,86.60
2022-12-01T18:33:41.082Z,86.80
2022-12-01T18:36:26.398Z,86.30
2022-12-01T18:38:54.506Z,85.30
2022-12-01T18:41:21.559Z,84.90
2022-12-01T18:43:48.434Z,84.60
2022-12-01T18:46:17.402Z,85.00
2022-12-01T18:48:49.957Z,85.60
2022-12-01T18:51:17.596Z,85.60
2022-12-01T18:53:45.566Z,85.70
2022-12-01T18:56:15.046Z,85.40
2022-12-01T18:58:42.215Z,85.10
2022-12-01T19:01:31.293Z,84.90
2022-12-01T19:03:59.713Z,84.30
2022-12-01T19:06:27.934Z,84.70
2022-12-01T19:08:55.588Z,84.80
2022-12-01T19:11:22.470Z,84.00
2022-12-01T19:13:49.897Z,84.40
2022-12-01T19:16:19.167Z,84.30
2022-12-01T19:18:46.272Z,83.70
2022-12-01T19:21:16.094Z,85.00
2022-12-01T19:23:46.419Z,85.50
2022-12-01T19:26:19.708Z,86.50
2022-12-01T19:28:47.927Z,86.30
2022-12-01T19:31:19.698Z,86.30
2022-12-01T19:33:47.222Z,86.00
2022-12-01T19:36:18.577Z,86.40
2022-12-01T19:38:45.783Z,86.80
2022-12-01T19:41:13.856Z,87.00
2022-12-01T19:43:42.257Z,87.80
2022-12-01T19:46:12.039Z,88.90
2022-12-01T19:48:39.162Z,89.10
2022-12-01T19:51:06.137Z,90.30
2022-12-01T19:53:34.014Z,90.60
2022-12-01T19:56:03.205Z,90.70
2022-12-01T19:58:33.255Z,90.70
2022-12-01T20:01:11.966Z,90.60
2022-12-01T20:03:40.666Z,90.60
2022-12-01T20:06:10.047Z,91.00
2022-12-01T20:08:36.900Z,91.10
2022-12-01T20:11:04.854Z,91.20
2022-12-01T20:13:36.503Z,91.40
2022-12-01T20:16:15.891Z,92.00
2022-12-01T20:18:43.270Z,92.00
2022-12-01T20:21:17.072Z,92.10
2022-12-01T20:23:45.760Z,92.80
2022-12-01T20:26:13.628Z,92.90
2022-12-01T20:28:41.022Z,93.00
2022-12-01T20:31:26.387Z,93.10
2022-12-01T20:33:55.520Z,93.40
2022-12-01T20:36:22.366Z,93.70
2022-12-01T20:38:49.345Z,93.70
2022-12-01T20:41:17.188Z,93.20
2022-12-01T20:43:44.055Z,92.80
2022-12-01T20:46:11.930Z,92.90
2022-12-01T20:48:38.919Z,92.50
2022-12-01T20:51:07.953Z,92.40
2022-12-01T20:53:35.372Z,92.20
2022-12-01T20:56:04.482Z,91.80
2022-12-01T20:58:35.987Z,91.70
2022-12-01T21:01:13.452Z,90.90
2022-12-01T21:03:42.315Z,91.30
2022-12-01T21:06:10.473Z,90.90
2022-12-01T21:08:38.567Z,91.50
2022-12-01T21:11:08.323Z,91.30
2022-12-01T21:13:44.257Z,91.30
2022-12-01T21:16:15.730Z,91.20
2022-12-01T21:18:55.829Z,91.10
2022-12-01T21:21:28.199Z,91.40
2022-12-01T21:24:19.882Z,91.40
2022-12-01T21:26:50.148Z,91.20
2022-12-01T21:29:28.476Z,90.70
2022-12-01T21:31:58.881Z,90.70
2022-12-01T21:34:28.496Z,91.30
2022-12-01T21:37:00.057Z,91.40
2022-12-01T21:39:26.830Z,91.10
2022-12-01T21:41:56.800Z,91.70
2022-12-01T21:44:32.881Z,91.80
2022-12-01T21:47:06.156Z,91.90
2022-12-01T21:49:39.000Z,91.30
2022-12-01T21:52:39.813Z,91.30
2022-12-01T21:55:15.519Z,91.20
2022-12-01T21:57:53.216Z,91.00
2022-12-01T22:00:36.854Z,91.10
2022-12-01T22:03:09.568Z,91.40
2022-12-01T22:05:42.271Z,91.10
2022-12-01T22:08:12.346Z,90.90
2022-12-01T22:10:58.993Z,90.80
2022-12-01T22:13:53.803Z,90.50
2022-12-01T22:16:20.841Z,90.30
2022-12-01T22:18:51.812Z,90.50
2022-12-01T22:21:36.695Z,90.30
2022-12-01T22:24:20.649Z,90.50
2022-12-01T22:26:53.419Z,90.30
2022-12-01T22:29:34.965Z,90.10
2022-12-01T22:32:14.027Z,90.10
2022-12-01T22:34:49.897Z,90.10
2022-12-01T22:37:22.417Z,90.30
2022-12-01T22:39:55.354Z,88.80
2022-12-01T22:42:34.009Z,89.60
2022-12-01T22:45:22.981Z,89.40
2022-12-01T22:47:49.974Z,90.30
2022-12-01T22:50:31.206Z,90.40
2022-12-01T22:53:06.300Z,90.60
2022-12-01T22:55:33.982Z,90.60
2022-12-01T22:58:01.139Z,90.90
2022-12-01T23:00:27.862Z,90.00
2022-12-01T23:02:56.329Z,88.30
2022-12-01T23:05:30.715Z,87.90
2022-12-01T23:07:57.732Z,87.40
2022-12-01T23:10:29.005Z,87.20
2022-12-01T23:12:59.424Z,87.60
2022-12-01T23:15:40.545Z,86.60
2022-12-01T23:18:24.847Z,86.60
2022-12-01T23:20:57.265Z,87.30
2022-12-01T23:23:29.962Z,87.20
2022-12-01T23:25:57.522Z,85.80
2022-12-01T23:28:24.814Z,86.00
2022-12-01T23:30:55.010Z,85.50
2022-12-01T23:33:24.012Z,84.20
2022-12-01T23:36:00.332Z,84.40
2022-12-01T23:38:37.438Z,83.30
2022-12-01T23:41:31.894Z,83.60
2022-12-01T23:44:03.632Z,83.80
2022-12-01T23:46:32.067Z,84.20
2022-12-01T23:49:01.257Z,84.20
2022-12-01T23:51:31.956Z,82.90
2022-12-01T23:54:01.479Z,82.10
2022-12-01T23:56:30.821Z,82.70
2022-12-01T23:59:00.668Z,82.20
